Terminal Aerodrome Forecast
Issued by NWS Memphis, TN

Home | Current Version | Previous Version | Text Only | Print | Product List | Glossary On
Versions: 1 2 3 4 5 6 7 8 9 10 11 12 13 14 15 16 17 18 19
712
FTUS44 KMEG 201124
TAFMKL
TAF
KMKL 201124Z 2012/2112 19006KT P6SM SCT007 BKN015 OVC035
      TEMPO 2012/2015 OVC007
     FM201600 20008KT P6SM VCSH BKN015 OVC250
     FM202100 20010KT P6SM SCT030 BKN250
     FM210000 19005KT P6SM BKN150=

USA.gov is the U.S. government's official web portal to all federal, state and local government web resources and services.